Time;durP1;ratioP1;P1;durP2;ratioP2;P2;SDS_P1;SDS_P2;PMS_P1;PMS_P2;Temp;Humidity;BMP_temperature;BMP_pressure;BME280_temperature;BME280_humidity;BME280_pressure;Samples;Min_cycle;Max_cycle;Signal;HPM_P1;HPM_P2
2021/04/27 00:01:18;;;;;;;8.45;5.63;;;;;;;13.62;80.23;94418.44;10408873;28;20022;-76
2021/04/27 00:06:18;;;;;;;7.60;5.10;;;;;;;13.54;79.31;94400.25;10408383;28;20116;-77
2021/04/27 00:11:19;;;;;;;7.50;5.13;;;;;;;13.56;79.98;94409.63;10408040;28;20017;-77
2021/04/27 00:16:19;;;;;;;8.82;5.93;;;;;;;13.65;81.27;94431.34;10407910;28;20272;-76
2021/04/27 00:21:19;;;;;;;9.43;5.93;;;;;;;13.56;79.68;94411.53;10407886;28;20025;-76
2021/04/27 00:26:20;;;;;;;18.20;5.47;;;;;;;13.64;87.88;94416.22;10407862;28;20116;-76
2021/04/27 00:31:20;;;;;;;14.20;5.10;;;;;;;13.57;96.48;94419.31;10407731;28;20029;-76
2021/04/27 00:36:21;;;;;;;8.90;5.07;;;;;;;13.33;100.00;94425.66;10408087;28;20021;-77
2021/04/27 00:41:22;;;;;;;8.80;5.73;;;;;;;13.37;100.00;94415.13;10407371;28;20034;-77
2021/04/27 00:46:22;;;;;;;9.65;5.47;;;;;;;13.42;100.00;94411.50;10407718;28;20455;-77
2021/04/27 00:51:23;;;;;;;8.20;5.43;;;;;;;13.25;100.00;94409.38;10407844;28;20026;-77
2021/04/27 00:56:23;;;;;;;9.35;5.10;;;;;;;13.27;100.00;94390.97;10407468;28;20033;-77
2021/04/27 01:01:24;;;;;;;10.17;5.17;;;;;;;13.25;100.00;94374.28;10407350;28;20048;-77
2021/04/27 01:06:25;;;;;;;8.32;4.57;;;;;;;13.19;100.00;94395.16;10407236;28;20795;-77
2021/04/27 01:11:47;;;;;;;10.73;4.88;;;;;;;13.00;100.00;94392.53;10407384;28;20018;-77
2021/04/27 01:16:54;;;;;;;8.90;5.40;;;;;;;13.09;100.00;94379.97;10406896;28;20041;-77
2021/04/27 01:21:56;;;;;;;7.28;4.88;;;;;;;13.25;100.00;94395.88;10406877;28;20025;-77
2021/04/27 01:26:59;;;;;;;7.25;4.40;;;;;;;13.16;100.00;94396.56;10406481;28;20049;-77
2021/04/27 01:32:03;;;;;;;9.98;5.63;;;;;;;13.23;100.00;94388.09;10412356;28;20040;-77
2021/04/27 01:37:08;;;;;;;7.70;4.60;;;;;;;13.12;100.00;94389.38;10414267;28;20045;-77
2021/04/27 01:42:09;;;;;;;9.38;4.72;;;;;;;13.09;100.00;94374.56;10413869;28;20045;-77
2021/04/27 01:47:11;;;;;;;10.75;4.28;;;;;;;13.07;100.00;94375.97;10413732;28;20021;-77
2021/04/27 01:52:12;;;;;;;5.63;3.60;;;;;;;12.99;100.00;94369.34;10414106;28;20030;-77
2021/04/27 01:57:12;;;;;;;10.55;4.05;;;;;;;12.93;100.00;94381.34;10413907;28;20029;-77
2021/04/27 02:02:12;;;;;;;7.17;4.17;;;;;;;12.87;100.00;94383.31;10412927;28;20025;-77
2021/04/27 02:07:13;;;;;;;9.37;5.00;;;;;;;12.76;100.00;94389.97;10413217;28;20026;-77
2021/04/27 02:12:14;;;;;;;10.10;5.40;;;;;;;12.58;100.00;94395.09;10395383;28;20048;-77
2021/04/27 02:17:21;;;;;;;12.77;5.13;;;;;;;12.53;100.00;94391.69;10413015;28;20075;-77
2021/04/27 02:22:26;;;;;;;8.40;4.72;;;;;;;12.38;100.00;94382.75;10412673;28;20396;-77
2021/04/27 02:27:30;;;;;;;7.28;5.30;;;;;;;12.32;100.00;94381.22;10412188;28;20029;-77
2021/04/27 02:32:30;;;;;;;8.38;4.95;;;;;;;12.44;100.00;94356.53;10412374;28;20380;-77
2021/04/27 02:37:31;;;;;;;9.75;5.35;;;;;;;12.43;100.00;94346.84;10412171;28;20036;-77
2021/04/27 02:42:36;;;;;;;10.63;5.95;;;;;;;12.38;100.00;94339.63;10411414;28;20041;-77
2021/04/27 02:47:36;;;;;;;10.32;5.57;;;;;;;12.26;100.00;94341.97;10394122;28;20411;-77
2021/04/27 02:52:36;;;;;;;9.17;6.27;;;;;;;12.21;100.00;94336.66;10411686;28;20022;-77
2021/04/27 02:57:37;;;;;;;10.77;6.70;;;;;;;12.06;100.00;94345.78;10411636;28;20037;-77
2021/04/27 03:02:37;;;;;;;11.37;6.60;;;;;;;12.02;100.00;94345.56;10410826;28;20029;-77
2021/04/27 03:07:38;;;;;;;13.23;7.67;;;;;;;11.89;100.00;94355.16;10410647;28;20136;-78
2021/04/27 03:12:38;;;;;;;14.90;7.57;;;;;;;11.77;100.00;94360.94;10410150;28;20056;-77
2021/04/27 03:17:40;;;;;;;17.00;7.88;;;;;;;11.74;100.00;94366.91;10409071;28;20021;-76
2021/04/27 03:22:41;;;;;;;10.85;6.97;;;;;;;11.58;100.00;94377.09;10409054;28;20087;-77
2021/04/27 03:27:42;;;;;;;12.93;7.93;;;;;;;11.53;100.00;94368.28;10409008;28;20029;-77
2021/04/27 03:32:42;;;;;;;13.65;8.35;;;;;;;11.38;100.00;94353.09;10410040;28;20032;-76
2021/04/27 03:37:43;;;;;;;13.73;8.32;;;;;;;11.35;100.00;94351.78;10409529;28;20036;-76
2021/04/27 03:42:43;;;;;;;13.60;8.93;;;;;;;11.27;100.00;94355.09;10407450;28;20084;-75
2021/04/27 03:47:44;;;;;;;16.93;8.70;;;;;;;11.23;100.00;94357.59;10408721;28;20326;-76
2021/04/27 03:52:45;;;;;;;17.08;9.27;;;;;;;11.22;100.00;94353.28;10407943;28;20068;-75
2021/04/27 03:57:46;;;;;;;17.42;9.70;;;;;;;11.24;100.00;94359.16;10408795;28;20390;-76
2021/04/27 04:02:46;;;;;;;18.85;9.18;;;;;;;11.22;100.00;94373.97;10408617;28;20029;-76
2021/04/27 04:07:47;;;;;;;11.57;8.32;;;;;;;11.14;100.00;94390.78;10408426;28;20044;-76
2021/04/27 04:12:47;;;;;;;16.48;9.20;;;;;;;10.85;100.00;94388.88;10407526;28;20025;-75
2021/04/27 04:17:48;;;;;;;17.08;10.50;;;;;;;11.02;100.00;94397.31;10406502;28;20041;-77
2021/04/27 04:22:49;;;;;;;17.10;8.70;;;;;;;11.19;100.00;94393.38;10406977;28;20112;-75
2021/04/27 04:27:51;;;;;;;12.95;8.65;;;;;;;11.11;100.00;94400.22;10407123;28;20390;-76
2021/04/27 04:32:53;;;;;;;13.55;8.75;;;;;;;11.11;100.00;94390.25;10407777;28;20025;-76
2021/04/27 04:37:53;;;;;;;19.00;9.43;;;;;;;11.20;100.00;94360.81;10389592;28;20492;-77
2021/04/27 04:42:54;;;;;;;16.88;10.20;;;;;;;11.03;100.00;94372.03;10406739;28;20049;-77
2021/04/27 04:47:54;;;;;;;15.50;9.37;;;;;;;11.20;100.00;94370.78;10406608;28;20033;-76
2021/04/27 04:52:54;;;;;;;15.23;8.03;;;;;;;11.24;100.00;94369.94;10405753;28;20037;-76
2021/04/27 04:57:55;;;;;;;18.40;8.63;;;;;;;11.28;100.00;94359.41;10404186;28;20046;-76
2021/04/27 05:02:55;;;;;;;15.57;7.90;;;;;;;11.44;100.00;94355.47;10406412;28;20037;-77
2021/04/27 05:08:22;;;;;;;15.35;7.95;;;;;;;11.76;100.00;94355.84;10413153;28;20268;-77
2021/04/27 05:13:19;;;;;;;16.08;7.82;;;;;;;12.26;100.00;94368.94;10413391;28;20038;-78
2021/04/27 05:18:19;;;;;;;16.73;7.20;;;;;;;12.54;100.00;94348.25;10413896;28;20056;-78
2021/04/27 05:23:22;;;;;;;13.52;7.85;;;;;;;13.09;100.00;94369.19;10414295;28;20025;-76
2021/04/27 05:28:23;;;;;;;10.27;6.88;;;;;;;13.91;100.00;94330.88;10413418;28;20581;-77
2021/04/27 05:33:23;;;;;;;16.42;7.20;;;;;;;14.55;100.00;94314.50;10413050;28;20030;-76
2021/04/27 05:38:23;;;;;;;17.70;7.60;;;;;;;14.68;100.00;94321.78;10412997;28;20029;-77
2021/04/27 05:43:24;;;;;;;11.30;6.80;;;;;;;14.40;100.00;94302.19;10394694;28;20132;-77
2021/04/27 05:48:24;;;;;;;9.25;6.18;;;;;;;14.28;100.00;94310.81;10412925;28;20048;-77
2021/04/27 05:53:25;;;;;;;12.63;7.55;;;;;;;15.03;100.00;94310.34;10394794;28;20045;-77
2021/04/27 05:58:25;;;;;;;16.33;7.50;;;;;;;14.86;100.00;94335.41;10412422;28;20098;-77
2021/04/27 06:03:26;;;;;;;14.48;8.23;;;;;;;14.67;100.00;94319.41;10412149;28;20033;-77
2021/04/27 06:08:26;;;;;;;13.83;7.90;;;;;;;15.02;100.00;94312.25;10412567;28;20022;-77
2021/04/27 06:13:26;;;;;;;15.93;7.90;;;;;;;15.21;100.00;94314.72;10412464;28;20265;-77
2021/04/27 06:18:27;;;;;;;12.47;6.83;;;;;;;15.38;100.00;94324.81;10411513;28;20272;-78
2021/04/27 06:23:28;;;;;;;13.98;6.70;;;;;;;16.53;98.24;94334.69;10411692;28;20079;-77
2021/04/27 06:28:28;;;;;;;13.68;6.65;;;;;;;18.16;84.16;94339.41;10412189;28;20112;-77
2021/04/27 06:33:29;;;;;;;11.17;5.43;;;;;;;18.35;75.88;94332.69;10412548;28;20465;-77
2021/04/27 06:38:30;;;;;;;13.80;6.07;;;;;;;17.28;83.82;94351.84;10412744;28;20022;-76
2021/04/27 06:43:30;;;;;;;10.75;5.93;;;;;;;16.89;90.05;94363.41;10412339;28;20453;-77
2021/04/27 06:48:34;;;;;;;11.87;6.20;;;;;;;16.68;86.88;94368.69;10394281;28;20083;-77
2021/04/27 06:53:35;;;;;;;10.57;6.15;;;;;;;16.73;87.71;94354.97;10412260;28;20806;-77
2021/04/27 06:58:35;;;;;;;11.95;7.25;;;;;;;16.87;85.55;94341.22;10394260;28;20040;-77
2021/04/27 07:03:36;;;;;;;15.70;7.60;;;;;;;17.36;86.99;94338.22;10394078;28;20132;-77
2021/04/27 07:08:36;;;;;;;11.82;7.80;;;;;;;17.33;82.13;94343.50;10411850;28;20122;-77
2021/04/27 07:13:37;;;;;;;12.07;7.40;;;;;;;17.73;82.46;94332.28;10411586;28;20484;-77
2021/04/27 07:18:37;;;;;;;17.55;8.50;;;;;;;17.48;83.35;94334.00;10411058;28;20030;-77
2021/04/27 07:23:37;;;;;;;16.63;7.60;;;;;;;17.13;81.17;94345.78;10411249;28;20040;-77
2021/04/27 07:28:38;;;;;;;12.50;7.93;;;;;;;17.41;82.14;94331.81;10409967;28;20271;-77
2021/04/27 07:33:38;;;;;;;13.55;7.88;;;;;;;18.54;76.63;94346.63;10410932;28;20044;-77
2021/04/27 07:38:39;;;;;;;13.80;5.80;;;;;;;20.13;63.69;94330.09;10410960;28;20029;-77
2021/04/27 07:43:40;;;;;;;10.43;5.35;;;;;;;20.74;55.05;94320.97;10410140;28;20466;-77
2021/04/27 07:48:40;;;;;;;10.90;5.20;;;;;;;21.73;52.09;94333.28;10410361;28;20029;-77
2021/04/27 07:53:41;;;;;;;10.27;5.10;;;;;;;21.88;49.64;94318.78;10410512;28;20473;-77
2021/04/27 07:58:42;;;;;;;8.65;5.13;;;;;;;21.77;49.86;94301.28;10409700;28;20576;-78
2021/04/27 08:03:43;;;;;;;15.65;4.97;;;;;;;22.68;51.45;94291.94;10391988;28;20029;-78
2021/04/27 08:08:43;;;;;;;10.63;5.50;;;;;;;23.71;47.11;94291.41;10409309;28;20037;-77
2021/04/27 08:13:43;;;;;;;9.03;4.73;;;;;;;24.37;42.77;94280.19;10409578;28;20282;-78
2021/04/27 08:18:44;;;;;;;8.53;3.93;;;;;;;25.66;37.98;94299.28;10409384;28;20911;-77
2021/04/27 08:23:44;;;;;;;6.85;3.67;;;;;;;26.09;37.02;94288.63;10408968;28;20298;-78
2021/04/27 08:28:45;;;;;;;9.85;4.60;;;;;;;24.14;41.36;94282.25;10408986;28;20041;-79
2021/04/27 08:33:46;;;;;;;7.10;4.05;;;;;;;24.60;39.24;94289.50;10409142;28;20029;-77
2021/04/27 08:38:46;;;;;;;10.00;3.33;;;;;;;23.43;42.28;94275.31;10408000;28;20096;-78
2021/04/27 08:43:46;;;;;;;7.43;4.60;;;;;;;22.42;44.17;94286.31;10408529;28;20092;-77
2021/04/27 08:48:47;;;;;;;9.13;4.17;;;;;;;21.98;43.90;94265.44;10408339;28;20299;-77
2021/04/27 08:53:48;;;;;;;6.25;4.00;;;;;;;21.96;45.84;94265.81;10409069;28;20133;-77
2021/04/27 08:58:48;;;;;;;7.63;4.97;;;;;;;22.14;44.02;94244.28;10409345;28;20041;-78
2021/04/27 09:03:51;;;;;;;8.47;3.73;;;;;;;22.84;44.39;94239.00;10390422;28;20037;-77
2021/04/27 09:08:56;;;;;;;8.90;3.65;;;;;;;24.08;40.42;94245.31;10408089;28;20291;-77
2021/04/27 09:14:19;;;;;;;9.45;4.00;;;;;;;25.02;39.13;94250.75;10390595;28;20385;-78
2021/04/27 09:19:29;;;;;;;8.02;3.80;;;;;;;26.23;37.31;94265.06;10407900;28;20095;-78
2021/04/27 09:24:34;;;;;;;7.82;3.78;;;;;;;25.56;36.44;94267.75;10408100;28;20083;-76
2021/04/27 09:29:40;;;;;;;7.47;3.55;;;;;;;25.08;38.11;94260.22;10407332;28;20091;-77
2021/04/27 09:34:41;;;;;;;10.20;3.50;;;;;;;22.75;41.69;94244.72;10407912;28;20033;-77
2021/04/27 09:39:48;;;;;;;6.90;3.88;;;;;;;22.09;43.80;94239.09;10389520;28;20534;-77
2021/04/27 09:44:51;;;;;;;8.13;4.38;;;;;;;21.16;45.17;94226.81;10407433;28;20046;-77
2021/04/27 09:50:07;;;;;;;7.03;4.10;;;;;;;20.43;48.82;94226.88;10413180;28;20033;-77
2021/04/27 09:55:16;;;;;;;14.15;4.68;;;;;;;19.97;50.88;94207.28;10415022;28;20056;-76
2021/04/27 10:00:20;;;;;;;9.02;4.30;;;;;;;19.69;52.92;94178.03;10414568;28;20044;-77
2021/04/27 10:05:21;;;;;;;7.13;4.13;;;;;;;19.56;55.41;94171.00;10414573;28;20036;-77
2021/04/27 10:10:21;;;;;;;9.85;4.55;;;;;;;19.56;53.21;94199.03;10415469;28;20510;-77
2021/04/27 10:15:21;;;;;;;6.63;4.40;;;;;;;19.53;54.34;94212.56;10414101;28;20025;-77
2021/04/27 10:20:22;;;;;;;12.33;5.17;;;;;;;19.27;55.52;94222.69;10413944;28;20021;-77
2021/04/27 10:25:27;;;;;;;12.32;5.25;;;;;;;19.21;56.19;94243.13;10413323;28;20286;-76
2021/04/27 10:30:33;;;;;;;11.02;4.57;;;;;;;19.16;58.03;94239.81;10412423;28;20029;-76
2021/04/27 10:35:38;;;;;;;9.00;4.50;;;;;;;18.70;62.68;94231.69;10413032;28;20064;-77
2021/04/27 10:40:45;;;;;;;8.63;5.35;;;;;;;18.58;62.97;94241.41;10394678;28;20021;-76
2021/04/27 10:45:45;;;;;;;10.30;5.30;;;;;;;18.22;64.67;94242.91;10411821;28;20489;-77
2021/04/27 10:50:45;;;;;;;13.00;4.80;;;;;;;18.25;65.41;94239.50;10412326;28;20025;-77
2021/04/27 10:55:52;;;;;;;8.80;5.37;;;;;;;17.84;70.97;94251.16;10394157;28;20040;-77
2021/04/27 11:00:53;;;;;;;7.88;4.68;;;;;;;17.82;65.15;94256.94;10411270;28;20451;-77
2021/04/27 11:06:00;;;;;;;3.22;2.58;;;;;;;16.45;57.55;94250.63;10393772;28;20055;-77
2021/04/27 11:11:16;;;;;;;4.50;1.95;;;;;;;15.15;66.22;94255.63;10410996;28;20366;-77
2021/04/27 11:16:30;;;;;;;4.40;2.35;;;;;;;14.49;80.76;94229.22;10410958;28;20030;-77
2021/04/27 11:21:32;;;;;;;5.75;2.15;;;;;;;14.19;84.80;94221.59;10410550;28;20025;-77
2021/04/27 11:26:32;;;;;;;6.32;2.60;;;;;;;14.06;79.36;94227.84;10410611;28;20029;-76
2021/04/27 11:32:15;;;;;;;8.30;2.58;;;;;;;14.60;74.61;94189.97;10410401;28;20025;-76
2021/04/27 11:37:20;;;;;;;4.43;2.20;;;;;;;14.94;67.25;94187.75;10371750;28;20073;-77
2021/04/27 11:42:31;;;;;;;8.02;2.08;;;;;;;15.47;59.38;94177.81;10410097;28;20038;-76
2021/04/27 11:47:40;;;;;;;4.15;1.92;;;;;;;15.81;63.38;94162.69;10409928;28;20025;-77
2021/04/27 11:52:50;;;;;;;3.85;1.90;;;;;;;16.38;63.39;94169.75;10409925;28;20382;-77
2021/04/27 11:57:55;;;;;;;10.18;2.50;;;;;;;16.77;55.04;94184.13;10409803;28;20104;-77
2021/04/27 12:02:56;;;;;;;4.90;2.20;;;;;;;16.89;59.95;94181.56;10409415;28;20061;-77
2021/04/27 12:07:57;;;;;;;4.88;2.28;;;;;;;17.30;57.74;94154.81;10409733;28;20484;-77
2021/04/27 12:12:57;;;;;;;5.17;2.43;;;;;;;17.54;55.46;94156.91;10408486;28;20026;-77
2021/04/27 12:17:57;;;;;;;8.23;3.13;;;;;;;17.69;60.81;94154.69;10409098;28;20758;-77
2021/04/27 12:23:00;;;;;;;8.50;2.83;;;;;;;17.60;64.58;94166.44;10409223;28;20400;-78
2021/04/27 12:28:05;;;;;;;7.90;2.83;;;;;;;17.51;65.15;94145.88;10408663;28;20275;-77
2021/04/27 12:33:10;;;;;;;13.10;3.53;;;;;;;17.42;59.70;94137.81;10408862;28;20024;-77
2021/04/27 12:38:13;;;;;;;4.05;2.35;;;;;;;17.12;57.34;94123.47;10408402;28;20025;-77
2021/04/27 12:43:14;;;;;;;5.57;2.95;;;;;;;17.04;55.67;94144.16;10408347;28;20041;-76
2021/04/27 12:48:18;;;;;;;7.90;2.63;;;;;;;16.51;63.19;94176.91;10408489;28;20029;-77
2021/04/27 12:53:20;;;;;;;7.82;3.70;;;;;;;16.22;73.28;94159.44;10407990;28;20037;-77
2021/04/27 12:58:26;;;;;;;10.07;3.80;;;;;;;16.10;74.91;94151.16;10408189;28;20061;-76
2021/04/27 13:03:29;;;;;;;9.80;3.15;;;;;;;16.22;74.45;94148.59;10407941;28;20018;-76
2021/04/27 13:08:29;;;;;;;9.13;3.70;;;;;;;16.20;77.45;94137.28;10408221;28;20033;-77
2021/04/27 13:13:29;;;;;;;9.75;5.28;;;;;;;16.18;86.18;94139.50;10407634;28;20029;-76
2021/04/27 13:18:31;;;;;;;8.37;4.13;;;;;;;16.13;86.83;94157.88;10407423;28;20104;-76
2021/04/27 13:23:34;;;;;;;7.63;3.38;;;;;;;15.60;86.42;94165.22;10407249;28;20775;-76
2021/04/27 13:28:37;;;;;;;15.68;3.83;;;;;;;15.64;90.12;94163.47;10413681;28;20036;-76
2021/04/27 13:33:41;;;;;;;11.52;4.35;;;;;;;15.67;91.92;94157.41;10415130;28;20423;-77
2021/04/27 13:38:44;;;;;;;17.05;5.07;;;;;;;15.13;96.01;94161.22;10414181;28;20029;-77
2021/04/27 13:43:46;;;;;;;12.70;3.33;;;;;;;14.73;92.96;94190.22;10413827;28;20041;-76
2021/04/27 13:48:47;;;;;;;7.00;4.03;;;;;;;14.58;92.29;94181.41;10413600;28;20021;-77
2021/04/27 13:53:50;;;;;;;6.45;3.40;;;;;;;14.74;100.00;94170.19;10413340;28;20029;-76
2021/04/27 13:58:50;;;;;;;8.05;3.78;;;;;;;14.23;100.00;94189.31;10413398;28;20033;-77
2021/04/27 14:03:51;;;;;;;8.93;3.70;;;;;;;14.06;95.12;94195.41;10412920;28;20048;-76
2021/04/27 14:08:51;;;;;;;6.13;3.25;;;;;;;14.19;94.92;94188.34;10412812;28;20029;-77
2021/04/27 14:13:52;;;;;;;10.77;4.00;;;;;;;13.80;100.00;94201.44;10412491;28;20028;-76
2021/04/27 14:18:52;;;;;;;11.80;4.23;;;;;;;12.96;100.00;94195.44;10412328;28;20029;-76
2021/04/27 14:23:52;;;;;;;11.80;4.53;;;;;;;12.39;100.00;94203.00;10411915;28;20037;-76
2021/04/27 14:28:53;;;;;;;9.53;5.87;;;;;;;12.21;100.00;94192.00;10411686;28;20032;-75
2021/04/27 14:33:53;;;;;;;11.50;4.77;;;;;;;12.21;100.00;94199.25;10411597;28;20264;-76
2021/04/27 14:38:54;;;;;;;11.73;6.15;;;;;;;12.24;100.00;94188.72;10393676;28;20017;-76
2021/04/27 14:43:54;;;;;;;31.73;8.63;;;;;;;12.38;100.00;94169.06;10411846;28;20049;-76
2021/04/27 14:48:54;;;;;;;12.65;6.30;;;;;;;12.54;100.00;94164.19;10411599;28;20022;-76
2021/04/27 14:53:55;;;;;;;15.77;5.80;;;;;;;12.55;100.00;94171.19;10410460;28;20045;-77
2021/04/27 14:58:58;;;;;;;11.90;5.53;;;;;;;12.58;100.00;94181.34;10409959;28;20021;-77
2021/04/27 15:04:00;;;;;;;14.88;6.95;;;;;;;12.71;100.00;94164.41;10409444;28;20030;-76
2021/04/27 15:09:05;;;;;;;11.88;6.75;;;;;;;12.85;100.00;94150.09;10411134;28;20408;-77
2021/04/27 15:14:07;;;;;;;9.07;5.70;;;;;;;13.01;100.00;94155.97;10410779;28;20136;-77
2021/04/27 15:19:08;;;;;;;11.50;5.18;;;;;;;13.08;100.00;94140.16;10392439;28;20053;-77
2021/04/27 15:24:09;;;;;;;7.63;4.72;;;;;;;13.16;100.00;94142.16;10409824;28;20026;-76
2021/04/27 15:29:11;;;;;;;12.63;5.38;;;;;;;13.32;100.00;94123.69;10409834;28;20447;-76
2021/04/27 15:34:11;;;;;;;16.65;4.82;;;;;;;13.36;100.00;94122.00;10409334;28;20079;-76
2021/04/27 15:39:12;;;;;;;9.52;5.22;;;;;;;13.28;100.00;94122.72;10391644;28;20434;-77
2021/04/27 15:44:13;;;;;;;11.05;4.95;;;;;;;13.42;100.00;94107.28;10409375;28;20042;-76
2021/04/27 15:49:14;;;;;;;13.75;5.00;;;;;;;13.62;100.00;94113.31;10407940;28;20817;-76
2021/04/27 15:54:20;;;;;;;20.30;6.75;;;;;;;13.46;100.00;94107.47;10408469;28;20025;-76
2021/04/27 15:59:21;;;;;;;14.90;7.32;;;;;;;13.47;100.00;94098.28;10421568;28;20032;-76
2021/04/27 16:04:21;;;;;;;14.68;6.93;;;;;;;13.52;100.00;94106.25;10389439;28;20042;-76
2021/04/27 16:09:22;;;;;;;11.47;5.67;;;;;;;13.46;100.00;94097.47;10407907;28;20420;-76
2021/04/27 16:14:22;;;;;;;12.90;6.53;;;;;;;13.48;100.00;94111.47;10407547;28;20096;-76
2021/04/27 16:19:22;;;;;;;10.87;6.00;;;;;;;13.41;100.00;94110.28;10408092;28;20039;-78
2021/04/27 16:24:23;;;;;;;10.30;5.50;;;;;;;13.40;100.00;94106.81;10408019;28;20037;-77
2021/04/27 16:29:23;;;;;;;12.02;5.10;;;;;;;13.34;100.00;94110.72;10407838;28;20028;-77
2021/04/27 16:34:24;;;;;;;13.40;4.47;;;;;;;13.42;100.00;94117.28;10407775;28;20029;-77
2021/04/27 16:39:24;;;;;;;14.48;4.90;;;;;;;13.42;100.00;94128.88;10407578;28;20399;-77
2021/04/27 16:44:24;;;;;;;11.40;5.37;;;;;;;13.34;100.00;94126.91;10408016;28;20389;-77
2021/04/27 16:49:25;;;;;;;14.30;7.63;;;;;;;13.44;100.00;94115.88;10408625;28;20033;-77
2021/04/27 16:54:25;;;;;;;16.60;5.57;;;;;;;13.51;100.00;94115.47;10391023;28;20385;-78
2021/04/27 16:59:26;;;;;;;12.32;5.82;;;;;;;13.50;100.00;94109.25;10410076;28;20501;-78
2021/04/27 17:04:26;;;;;;;12.73;6.45;;;;;;;13.50;100.00;94119.25;10415870;28;20100;-77
2021/04/27 17:09:26;;;;;;;19.03;9.73;;;;;;;13.58;100.00;94121.22;10415064;28;20034;-77
2021/04/27 17:14:27;;;;;;;23.23;11.05;;;;;;;13.69;100.00;94138.00;10415315;28;20108;-77
2021/04/27 17:19:27;;;;;;;20.43;10.77;;;;;;;13.39;100.00;94156.47;10415342;28;20091;-77
2021/04/27 17:24:28;;;;;;;19.15;7.13;;;;;;;13.09;100.00;94158.75;10414632;28;20544;-77
2021/04/27 17:29:28;;;;;;;13.75;8.02;;;;;;;12.86;100.00;94165.97;10414951;28;20112;-77
2021/04/27 17:34:29;;;;;;;9.30;4.43;;;;;;;12.78;100.00;94164.78;10414989;28;20033;-77
2021/04/27 17:39:29;;;;;;;11.68;4.88;;;;;;;12.86;100.00;94157.09;10396944;28;20043;-77
2021/04/27 17:44:29;;;;;;;11.47;5.20;;;;;;;13.05;100.00;94167.75;10412909;28;20133;-77
2021/04/27 17:49:30;;;;;;;12.57;5.33;;;;;;;13.40;100.00;94158.09;10413214;28;20275;-77
2021/04/27 17:54:30;;;;;;;12.27;5.90;;;;;;;13.63;100.00;94167.03;10413557;28;20036;-77
2021/04/27 17:59:31;;;;;;;16.13;5.97;;;;;;;13.76;100.00;94167.25;10413963;28;20033;-77
2021/04/27 18:04:31;;;;;;;10.97;6.13;;;;;;;13.63;100.00;94163.50;10412336;28;20856;-77
2021/04/27 18:09:31;;;;;;;13.95;5.68;;;;;;;13.21;100.00;94162.81;10412765;28;20341;-77
2021/04/27 18:14:32;;;;;;;13.50;7.30;;;;;;;13.16;100.00;94171.81;10407065;28;20448;-77
2021/04/27 18:19:34;;;;;;;9.48;4.75;;;;;;;12.95;100.00;94169.56;10372074;28;20030;-78
2021/04/27 18:24:34;;;;;;;6.63;3.90;;;;;;;12.99;100.00;94185.91;10371651;28;20460;-77
2021/04/27 18:29:35;;;;;;;12.90;5.17;;;;;;;12.98;100.00;94184.34;10371251;28;20030;-77
2021/04/27 18:34:37;;;;;;;17.13;5.50;;;;;;;12.93;100.00;94182.53;10371604;28;20040;-77
2021/04/27 18:39:37;;;;;;;12.18;5.43;;;;;;;12.91;100.00;94190.13;10370984;28;20029;-77
2021/04/27 18:44:38;;;;;;;11.55;4.93;;;;;;;12.97;100.00;94193.53;10370222;28;20049;-77
2021/04/27 18:49:38;;;;;;;9.07;5.22;;;;;;;13.03;100.00;94192.31;10370101;28;20033;-77
2021/04/27 18:54:39;;;;;;;13.27;6.30;;;;;;;13.06;100.00;94216.00;10371215;28;20493;-77
2021/04/27 18:59:39;;;;;;;11.88;6.90;;;;;;;12.92;100.00;94224.09;10352556;28;20277;-77
2021/04/27 19:04:40;;;;;;;12.73;6.50;;;;;;;12.81;100.00;94207.31;10370279;28;20460;-77
2021/04/27 19:09:40;;;;;;;15.77;6.82;;;;;;;12.64;100.00;94201.72;10370313;28;20152;-77
2021/04/27 19:14:40;;;;;;;15.65;7.32;;;;;;;12.54;100.00;94194.63;10370272;28;20695;-78
2021/04/27 19:19:41;;;;;;;17.48;6.63;;;;;;;12.35;100.00;94193.91;10369288;28;20489;-76
2021/04/27 19:24:42;;;;;;;15.03;6.87;;;;;;;12.28;100.00;94197.00;10367930;28;20022;-76
2021/04/27 19:29:42;;;;;;;12.13;6.05;;;;;;;12.03;100.00;94203.59;10368794;28;20034;-77
2021/04/27 19:34:42;;;;;;;11.63;6.10;;;;;;;12.15;100.00;94201.25;10368498;28;20030;-77
2021/04/27 19:39:43;;;;;;;12.20;5.95;;;;;;;12.25;100.00;94202.97;10368828;28;20465;-76
2021/04/27 19:44:43;;;;;;;9.00;5.90;;;;;;;12.40;100.00;94197.31;10350413;28;20505;-76
2021/04/27 19:49:44;;;;;;;10.87;6.13;;;;;;;12.49;100.00;94205.50;10368114;28;20034;-77
2021/04/27 19:54:44;;;;;;;11.93;6.80;;;;;;;12.48;100.00;94196.63;10368154;28;20284;-77
2021/04/27 19:59:44;;;;;;;13.70;6.40;;;;;;;12.45;100.00;94194.53;10368307;28;20041;-77
2021/04/27 20:04:47;;;;;;;15.73;7.10;;;;;;;12.28;100.00;94195.09;10367735;28;20289;-77
2021/04/27 20:09:47;;;;;;;13.27;6.00;;;;;;;12.27;100.00;94208.88;10367403;28;20777;-77
2021/04/27 20:14:48;;;;;;;9.40;5.70;;;;;;;12.29;100.00;94199.41;10367560;28;20036;-77
2021/04/27 20:19:48;;;;;;;13.32;6.07;;;;;;;12.42;100.00;94195.13;10367391;28;20277;-76
2021/04/27 20:24:48;;;;;;;9.53;6.03;;;;;;;12.44;100.00;94203.69;10366942;28;20069;-76
2021/04/27 20:29:49;;;;;;;14.50;6.60;;;;;;;12.43;100.00;94201.31;10367001;28;20116;-76
2021/04/27 20:34:49;;;;;;;11.20;5.60;;;;;;;12.64;100.00;94204.41;10366382;28;20273;-77
2021/04/27 20:39:50;;;;;;;11.93;5.70;;;;;;;12.71;100.00;94204.84;10366388;28;20269;-76
2021/04/27 20:44:50;;;;;;;9.13;5.07;;;;;;;12.79;100.00;94182.53;10366386;28;20048;-76
2021/04/27 20:49:51;;;;;;;7.78;5.43;;;;;;;12.96;100.00;94187.34;10366554;28;20030;-76
2021/04/27 20:54:51;;;;;;;18.17;6.28;;;;;;;13.04;100.00;94202.00;10367291;28;20034;-76
2021/04/27 20:59:52;;;;;;;11.37;5.90;;;;;;;13.01;100.00;94186.44;10348745;28;20129;-76
2021/04/27 21:04:52;;;;;;;15.80;7.00;;;;;;;12.80;100.00;94191.44;10366270;28;20096;-77
2021/04/27 21:09:52;;;;;;;15.97;7.17;;;;;;;12.57;100.00;94191.34;10366200;28;20051;-76
2021/04/27 21:14:53;;;;;;;11.53;7.60;;;;;;;12.33;100.00;94191.50;10366291;28;20269;-76
2021/04/27 21:19:53;;;;;;;17.42;7.72;;;;;;;12.19;100.00;94196.88;10366363;28;20030;-76
2021/04/27 21:24:55;;;;;;;47.10;24.93;;;;;;;12.08;100.00;94206.22;10366111;28;20696;-76
2021/04/27 21:29:55;;;;;;;10.20;6.68;;;;;;;12.00;100.00;94205.03;10348546;28;20029;-76
2021/04/27 21:34:56;;;;;;;16.23;5.37;;;;;;;12.07;100.00;94218.91;10366087;28;20034;-76
2021/04/27 21:39:56;;;;;;;11.05;5.63;;;;;;;11.92;100.00;94216.44;10364278;28;20319;-76
2021/04/27 21:44:57;;;;;;;15.70;6.05;;;;;;;11.96;100.00;94214.78;10396657;28;20107;-76
2021/04/27 21:49:57;;;;;;;9.23;5.93;;;;;;;11.98;100.00;94222.56;10412579;28;20029;-76
2021/04/27 21:54:57;;;;;;;15.73;6.10;;;;;;;11.93;100.00;94221.53;10414770;28;20450;-76
2021/04/27 21:59:58;;;;;;;11.07;6.73;;;;;;;11.95;100.00;94213.19;10396356;28;20029;-76
2021/04/27 22:04:58;;;;;;;14.57;6.30;;;;;;;11.86;100.00;94218.41;10413549;28;20033;-77
2021/04/27 22:09:58;;;;;;;12.50;6.67;;;;;;;11.89;100.00;94208.91;10413225;28;20299;-76
2021/04/27 22:14:59;;;;;;;10.10;6.50;;;;;;;11.97;100.00;94200.19;10411358;28;20396;-76
2021/04/27 22:19:59;;;;;;;10.33;6.17;;;;;;;11.90;100.00;94194.38;10412263;28;20030;-76
2021/04/27 22:25:00;;;;;;;10.80;6.00;;;;;;;11.87;100.00;94203.03;10412156;28;20029;-76
2021/04/27 22:30:00;;;;;;;12.75;6.28;;;;;;;11.91;100.00;94217.53;10412451;28;20644;-77
2021/04/27 22:35:02;;;;;;;8.20;6.18;;;;;;;11.89;100.00;94217.81;10411578;28;20022;-76
2021/04/27 22:40:05;;;;;;;12.88;6.47;;;;;;;11.84;100.00;94222.50;10411113;28;20493;-77
2021/04/27 22:45:07;;;;;;;13.93;6.60;;;;;;;11.83;100.00;94213.59;10392495;28;20046;-76
2021/04/27 22:50:11;;;;;;;15.57;7.32;;;;;;;11.63;100.00;94212.81;10411329;28;20025;-77
2021/04/27 22:55:16;;;;;;;14.95;6.25;;;;;;;11.49;100.00;94217.34;10412550;28;20038;-76
2021/04/27 23:00:27;;;;;;;18.88;6.03;;;;;;;11.43;100.00;94213.94;10409431;28;20068;-77